createdAt,value
2023-03-16T00:00:03.839Z,4.74
2023-03-16T00:02:30.695Z,4.75
2023-03-16T00:04:57.518Z,4.76
2023-03-16T00:07:24.653Z,4.78
2023-03-16T00:09:51.494Z,4.82
2023-03-16T00:12:19.669Z,4.83
2023-03-16T00:14:48.865Z,4.85
2023-03-16T00:17:21.753Z,4.82
2023-03-16T00:19:54.964Z,4.83
2023-03-16T00:22:27.256Z,4.69
2023-03-16T00:24:55.356Z,4.78
2023-03-16T00:27:24.575Z,4.73
2023-03-16T00:29:56.458Z,4.76
2023-03-16T00:32:30.223Z,4.70
2023-03-16T00:34:57.684Z,4.63
2023-03-16T00:37:26.690Z,4.62
2023-03-16T00:39:57.164Z,4.67
2023-03-16T00:42:28.361Z,4.71
2023-03-16T00:44:59.445Z,4.74
2023-03-16T00:47:29.764Z,4.74
2023-03-16T00:49:57.222Z,4.76
2023-03-16T00:52:25.137Z,4.71
2023-03-16T00:54:54.515Z,4.63
2023-03-16T00:57:25.063Z,4.54
2023-03-16T00:59:52.562Z,4.56
2023-03-16T01:02:23.348Z,4.51
2023-03-16T01:04:52.230Z,4.51
2023-03-16T01:07:19.757Z,4.47
2023-03-16T01:09:46.753Z,4.43
2023-03-16T01:12:17.742Z,4.36
2023-03-16T01:14:48.201Z,4.35
2023-03-16T01:17:17.539Z,4.22
2023-03-16T01:19:45.787Z,4.21
2023-03-16T01:22:12.904Z,4.25
2023-03-16T01:24:40.728Z,4.25
2023-03-16T01:27:09.162Z,4.16
2023-03-16T01:29:36.423Z,4.13
2023-03-16T01:32:04.289Z,4.11
2023-03-16T01:34:31.979Z,4.10
2023-03-16T01:36:59.074Z,4.04
2023-03-16T01:39:26.777Z,3.98
2023-03-16T01:41:53.820Z,3.98
2023-03-16T01:44:30.434Z,3.97
2023-03-16T01:46:58.098Z,3.97
2023-03-16T01:49:33.673Z,3.99
2023-03-16T01:52:07.133Z,4.02
2023-03-16T01:54:40.913Z,4.01
2023-03-16T01:57:15.703Z,4.04
2023-03-16T02:00:19.113Z,4.08
2023-03-16T02:02:55.489Z,4.09
2023-03-16T02:05:33.415Z,3.98
2023-03-16T02:08:02.438Z,4.01
2023-03-16T02:10:30.340Z,4.00
2023-03-16T02:12:58.573Z,4.01
2023-03-16T02:15:25.664Z,4.01
2023-03-16T02:17:52.840Z,3.96
2023-03-16T02:20:36.535Z,4.03
2023-03-16T02:23:06.833Z,4.00
2023-03-16T02:25:51.642Z,3.99
2023-03-16T02:28:48.215Z,3.96
2023-03-16T02:31:17.611Z,3.93
2023-03-16T02:33:46.227Z,3.94
2023-03-16T02:36:15.069Z,3.92
2023-03-16T02:38:41.866Z,3.89
2023-03-16T02:41:18.459Z,3.86
2023-03-16T02:44:29.243Z,3.75
2023-03-16T02:47:01.441Z,3.61
2023-03-16T02:49:37.046Z,3.51
2023-03-16T02:52:07.680Z,3.48
2023-03-16T02:54:34.784Z,3.48
2023-03-16T02:57:02.130Z,3.44
2023-03-16T02:59:29.175Z,3.37
2023-03-16T03:01:56.201Z,3.37
2023-03-16T03:04:24.511Z,3.38
2023-03-16T03:06:52.083Z,3.36
2023-03-16T03:09:19.636Z,3.32
2023-03-16T03:11:46.871Z,3.34
2023-03-16T03:14:16.717Z,3.29
2023-03-16T03:16:46.756Z,3.26
2023-03-16T03:19:13.868Z,3.27
2023-03-16T03:21:41.583Z,3.23
2023-03-16T03:24:09.772Z,3.26
2023-03-16T03:26:40.117Z,3.27
2023-03-16T03:29:06.954Z,3.27
2023-03-16T03:31:33.817Z,3.28
2023-03-16T03:34:06.411Z,3.32
2023-03-16T03:36:34.438Z,3.32
2023-03-16T03:39:05.101Z,3.32
2023-03-16T03:41:33.266Z,3.31
2023-03-16T03:44:00.763Z,3.19
2023-03-16T03:46:27.782Z,3.08
2023-03-16T03:48:54.631Z,3.02
2023-03-16T03:51:21.786Z,3.03
2023-03-16T03:53:48.637Z,3.06
2023-03-16T03:56:15.535Z,3.02
2023-03-16T03:58:42.370Z,2.99
2023-03-16T04:01:09.219Z,3.02
2023-03-16T04:03:36.056Z,3.06
2023-03-16T04:06:02.997Z,3.04
2023-03-16T04:08:29.934Z,3.04
2023-03-16T04:10:56.766Z,3.07
2023-03-16T04:13:23.640Z,3.12
2023-03-16T04:16:00.100Z,3.14
2023-03-16T04:18:26.946Z,3.16
2023-03-16T04:20:54.069Z,3.18
2023-03-16T04:23:22.180Z,3.16
2023-03-16T04:25:49.059Z,3.20
2023-03-16T04:28:17.783Z,3.12
2023-03-16T04:30:44.690Z,3.19
2023-03-16T04:33:11.595Z,3.13
2023-03-16T04:35:38.484Z,3.05
2023-03-16T04:38:05.463Z,2.96
2023-03-16T04:40:32.269Z,2.95
2023-03-16T04:42:59.109Z,2.98
2023-03-16T04:45:26.645Z,3.01
2023-03-16T04:47:53.435Z,3.00
2023-03-16T04:50:20.355Z,2.99
2023-03-16T04:52:47.260Z,3.03
2023-03-16T04:55:14.138Z,3.03
2023-03-16T04:57:40.931Z,2.99
2023-03-16T05:00:13.364Z,3.01
2023-03-16T05:02:40.209Z,3.02
2023-03-16T05:05:07.352Z,2.96
2023-03-16T05:07:34.710Z,2.90
2023-03-16T05:10:01.544Z,2.86
2023-03-16T05:12:28.484Z,2.79
2023-03-16T05:14:55.510Z,2.79
2023-03-16T05:17:22.301Z,2.81
2023-03-16T05:19:49.143Z,2.77
2023-03-16T05:22:16.689Z,2.73
2023-03-16T05:24:43.514Z,2.78
2023-03-16T05:27:23.647Z,2.72
2023-03-16T05:29:50.482Z,2.73
2023-03-16T05:32:17.256Z,2.74
2023-03-16T05:34:44.169Z,2.76
2023-03-16T05:37:11.203Z,2.77
2023-03-16T05:39:38.107Z,2.78
2023-03-16T05:42:06.055Z,2.83
2023-03-16T05:44:33.521Z,2.86
2023-03-16T05:47:00.397Z,2.94
2023-03-16T05:49:27.308Z,3.05
2023-03-16T05:51:54.623Z,3.12
2023-03-16T05:54:21.496Z,3.17
2023-03-16T05:56:48.453Z,3.21
2023-03-16T05:59:16.554Z,3.31
2023-03-16T06:01:43.421Z,3.37
2023-03-16T06:04:10.214Z,3.59
2023-03-16T06:06:37.177Z,3.78
2023-03-16T06:09:04.492Z,3.89
2023-03-16T06:11:32.861Z,4.16
2023-03-16T06:14:01.181Z,4.36
2023-03-16T06:16:34.000Z,4.52
2023-03-16T06:19:01.028Z,4.61
2023-03-16T06:21:27.931Z,4.86
2023-03-16T06:23:55.966Z,4.97
2023-03-16T06:26:22.838Z,5.22
2023-03-16T06:28:49.685Z,5.39
2023-03-16T06:31:16.610Z,5.54
2023-03-16T06:33:43.459Z,5.64
2023-03-16T06:36:10.481Z,6.01
2023-03-16T06:38:37.386Z,6.16
2023-03-16T06:41:04.299Z,6.17
2023-03-16T06:43:31.077Z,6.32
2023-03-16T06:45:58.864Z,6.50
2023-03-16T06:48:25.754Z,6.78
2023-03-16T06:50:52.613Z,6.88
2023-03-16T06:53:19.431Z,6.63
2023-03-16T06:55:46.286Z,7.04
2023-03-16T06:58:13.219Z,7.19
2023-03-16T07:00:40.167Z,7.01
2023-03-16T07:03:06.996Z,7.53
2023-03-16T07:05:33.842Z,7.47
2023-03-16T07:08:01.276Z,7.54
2023-03-16T07:10:28.543Z,7.60
2023-03-16T07:12:55.479Z,7.51
2023-03-16T07:15:25.415Z,7.87
2023-03-16T07:17:52.788Z,7.85
2023-03-16T07:20:21.124Z,7.99
2023-03-16T07:22:50.163Z,8.02
2023-03-16T07:25:17.038Z,7.81
2023-03-16T07:27:45.484Z,7.61
2023-03-16T07:30:14.196Z,8.10
2023-03-16T07:32:42.271Z,8.34
2023-03-16T07:35:11.741Z,8.56
2023-03-16T07:37:38.870Z,8.24
2023-03-16T07:40:09.215Z,8.99
2023-03-16T07:42:37.055Z,8.93
2023-03-16T07:45:05.904Z,9.30
2023-03-16T07:47:33.659Z,9.06
2023-03-16T07:50:01.308Z,9.47
2023-03-16T07:52:28.366Z,9.18
2023-03-16T07:54:55.759Z,8.99
2023-03-16T07:57:22.629Z,9.36
2023-03-16T07:59:50.337Z,8.99
2023-03-16T08:02:20.281Z,9.70
2023-03-16T08:04:47.485Z,9.71
2023-03-16T08:07:15.601Z,9.72
2023-03-16T08:09:42.532Z,9.71
2023-03-16T08:12:10.228Z,10.01
2023-03-16T08:14:37.723Z,10.01
2023-03-16T08:17:07.180Z,10.50
2023-03-16T08:19:35.319Z,10.86
2023-03-16T08:22:02.325Z,10.64
2023-03-16T08:24:29.736Z,11.24
2023-03-16T08:26:57.832Z,11.11
2023-03-16T08:29:26.219Z,11.54
2023-03-16T08:31:56.145Z,11.69
2023-03-16T08:34:24.678Z,10.87
2023-03-16T08:36:51.495Z,11.24
2023-03-16T08:39:18.333Z,11.32
2023-03-16T08:41:46.989Z,11.23
2023-03-16T08:44:13.841Z,11.38
2023-03-16T08:46:42.324Z,11.44
2023-03-16T08:49:09.397Z,11.62
2023-03-16T08:51:36.944Z,11.17
2023-03-16T08:54:03.895Z,12.10
2023-03-16T08:56:30.751Z,11.60
2023-03-16T08:58:57.685Z,11.86
2023-03-16T09:01:25.783Z,11.49
2023-03-16T09:03:52.818Z,11.22
2023-03-16T09:06:19.980Z,11.13
2023-03-16T09:08:47.710Z,11.58
2023-03-16T09:11:18.702Z,11.19
2023-03-16T09:13:46.062Z,10.99
2023-03-16T09:16:15.219Z,10.59
2023-03-16T09:18:43.277Z,10.70
2023-03-16T09:21:13.884Z,11.13
2023-03-16T09:23:42.638Z,11.31
2023-03-16T09:26:10.333Z,11.09
2023-03-16T09:28:38.773Z,10.70
2023-03-16T09:31:07.559Z,10.73
2023-03-16T09:33:36.040Z,11.05
2023-03-16T09:36:04.395Z,11.36
2023-03-16T09:38:32.125Z,11.34
2023-03-16T09:41:04.901Z,11.51
2023-03-16T09:44:10.507Z,11.52
2023-03-16T09:46:45.495Z,11.18
2023-03-16T09:49:18.032Z,11.85
2023-03-16T09:52:06.112Z,11.79
2023-03-16T09:54:49.368Z,12.09
2023-03-16T09:57:40.429Z,11.59
2023-03-16T10:01:11.274Z,10.33
2023-03-16T10:04:24.903Z,11.36
2023-03-16T10:07:12.614Z,11.21
2023-03-16T10:10:15.940Z,11.39
2023-03-16T10:12:50.385Z,11.43
2023-03-16T10:15:24.424Z,11.01
2023-03-16T10:18:09.183Z,11.18
2023-03-16T10:20:36.582Z,11.12
2023-03-16T10:23:24.449Z,10.79
2023-03-16T10:25:56.714Z,10.16
2023-03-16T10:28:26.312Z,11.18
2023-03-16T10:30:56.247Z,11.61
2023-03-16T10:33:30.404Z,11.91
2023-03-16T10:36:12.503Z,11.84
2023-03-16T10:38:46.754Z,11.47
2023-03-16T10:41:23.065Z,11.75
2023-03-16T10:43:57.720Z,11.80
2023-03-16T10:46:29.241Z,12.07
2023-03-16T10:49:00.372Z,11.64
2023-03-16T10:51:31.484Z,11.97
2023-03-16T10:54:14.202Z,11.96
2023-03-16T10:56:41.245Z,11.81
2023-03-16T10:59:28.479Z,12.01
2023-03-16T11:01:57.093Z,11.98
2023-03-16T11:04:25.005Z,12.75
2023-03-16T11:06:57.176Z,12.71
2023-03-16T11:09:33.512Z,12.25
2023-03-16T11:12:13.811Z,13.49
2023-03-16T11:14:45.073Z,12.76
2023-03-16T11:17:37.108Z,13.15
2023-03-16T11:20:17.564Z,13.45
2023-03-16T11:22:47.180Z,13.30
2023-03-16T11:25:16.923Z,13.93
2023-03-16T11:28:04.260Z,13.96
2023-03-16T11:30:51.733Z,14.04
2023-03-16T11:33:18.689Z,14.46
2023-03-16T11:36:12.523Z,15.06
2023-03-16T11:39:11.136Z,13.59
2023-03-16T11:41:53.618Z,14.29
2023-03-16T11:44:49.501Z,14.58
2023-03-16T11:47:40.727Z,15.49
2023-03-16T11:50:29.007Z,15.92
2023-03-16T11:53:29.867Z,14.97
2023-03-16T11:56:06.573Z,13.88
2023-03-16T11:58:57.253Z,14.83
2023-03-16T12:02:01.774Z,15.31
2023-03-16T12:05:06.277Z,15.80
2023-03-16T12:08:10.080Z,15.55
2023-03-16T12:10:56.435Z,16.24
2023-03-16T12:13:38.521Z,15.53
2023-03-16T12:16:48.240Z,15.24
2023-03-16T12:19:50.313Z,16.16
2023-03-16T12:22:42.651Z,18.17
2023-03-16T12:25:24.673Z,17.05
2023-03-16T12:27:54.923Z,18.17
2023-03-16T12:30:28.390Z,19.38
2023-03-16T12:33:06.406Z,19.75
2023-03-16T12:35:51.212Z,18.61
2023-03-16T12:38:32.103Z,19.65
2023-03-16T12:41:40.969Z,19.75
2023-03-16T12:44:13.332Z,20.32
2023-03-16T12:47:00.925Z,20.18
2023-03-16T12:49:33.129Z,20.91
2023-03-16T12:52:10.179Z,20.65
2023-03-16T12:54:53.085Z,21.13
2023-03-16T12:57:25.125Z,21.20
2023-03-16T12:59:58.373Z,21.40
2023-03-16T13:02:30.542Z,22.28
2023-03-16T13:05:12.252Z,23.03
2023-03-16T13:08:24.056Z,22.22
2023-03-16T13:11:20.385Z,23.03
2023-03-16T13:14:02.458Z,21.99
2023-03-16T13:16:32.327Z,22.71
2023-03-16T13:18:59.824Z,23.85
2023-03-16T13:21:38.201Z,23.71
2023-03-16T13:24:34.963Z,25.13
2023-03-16T13:27:20.070Z,25.64
2023-03-16T13:30:03.474Z,25.83
2023-03-16T13:32:35.025Z,26.53
2023-03-16T13:35:05.267Z,25.79
2023-03-16T13:37:32.276Z,26.29
2023-03-16T13:40:02.095Z,27.16
2023-03-16T13:42:33.166Z,25.96
2023-03-16T13:45:15.225Z,25.87
2023-03-16T13:47:44.128Z,24.53
2023-03-16T13:50:13.852Z,26.34
2023-03-16T13:52:44.561Z,26.88
2023-03-16T13:55:18.126Z,28.04
2023-03-16T13:57:45.969Z,27.95
2023-03-16T14:00:26.351Z,27.56
2023-03-16T14:02:59.088Z,27.57
2023-03-16T14:05:33.374Z,27.82
2023-03-16T14:08:00.968Z,27.80
2023-03-16T14:10:36.557Z,29.49
2023-03-16T14:13:29.064Z,28.98
2023-03-16T14:16:01.001Z,28.87
2023-03-16T14:18:37.214Z,26.98
2023-03-16T14:21:22.901Z,27.75
2023-03-16T14:24:01.985Z,28.02
2023-03-16T14:26:45.194Z,25.74
2023-03-16T14:29:33.048Z,27.65
2023-03-16T14:32:00.178Z,27.34
2023-03-16T14:34:39.524Z,25.95
2023-03-16T14:37:20.144Z,27.04
2023-03-16T14:40:00.795Z,27.79
2023-03-16T14:42:30.726Z,28.00
2023-03-16T14:45:00.407Z,28.08
2023-03-16T14:47:37.803Z,28.92
2023-03-16T14:50:12.650Z,30.43
2023-03-16T14:52:39.760Z,30.04
2023-03-16T14:55:14.687Z,30.33
2023-03-16T14:57:42.935Z,29.48
2023-03-16T15:00:13.785Z,29.39
2023-03-16T15:02:43.730Z,29.52
2023-03-16T15:05:22.407Z,27.47
2023-03-16T15:07:54.747Z,27.34
2023-03-16T15:10:29.413Z,28.02
2023-03-16T15:13:06.001Z,27.68
2023-03-16T15:15:32.854Z,28.09
2023-03-16T15:18:00.106Z,27.23
2023-03-16T15:20:36.002Z,28.21
2023-03-16T15:23:04.867Z,26.89
2023-03-16T15:25:41.281Z,26.51
2023-03-16T15:28:19.354Z,27.24
2023-03-16T15:30:50.181Z,27.26
2023-03-16T15:33:17.539Z,25.95
2023-03-16T15:35:46.717Z,26.55
2023-03-16T15:38:29.898Z,24.64
2023-03-16T15:40:56.866Z,26.79
2023-03-16T15:43:27.285Z,25.94
2023-03-16T15:45:55.865Z,25.19
2023-03-16T15:48:24.593Z,23.30
2023-03-16T15:51:08.486Z,21.69
2023-03-16T15:53:47.716Z,19.75
2023-03-16T15:56:18.052Z,18.94
2023-03-16T15:58:46.624Z,18.11
2023-03-16T16:01:23.689Z,16.56
2023-03-16T16:03:52.019Z,16.39
2023-03-16T16:06:18.956Z,15.79
2023-03-16T16:08:45.971Z,16.04
2023-03-16T16:11:27.393Z,15.22
2023-03-16T16:13:56.791Z,15.03
2023-03-16T16:16:26.894Z,14.98
2023-03-16T16:18:53.719Z,14.92
2023-03-16T16:21:28.873Z,14.84
2023-03-16T16:23:56.714Z,14.62
2023-03-16T16:26:49.081Z,14.66
2023-03-16T16:29:23.072Z,14.62
2023-03-16T16:31:51.627Z,14.54
2023-03-16T16:34:24.245Z,14.54
2023-03-16T16:36:51.780Z,14.65
2023-03-16T16:39:18.671Z,14.54
2023-03-16T16:41:46.033Z,14.26
2023-03-16T16:44:21.426Z,14.30
2023-03-16T16:46:50.354Z,14.34
2023-03-16T16:49:25.211Z,14.19
2023-03-16T16:51:53.567Z,14.13
2023-03-16T16:54:23.721Z,13.93
2023-03-16T16:56:53.744Z,13.76
2023-03-16T16:59:25.172Z,13.74
2023-03-16T17:01:56.516Z,13.71
2023-03-16T17:04:27.095Z,13.45
2023-03-16T17:06:58.702Z,13.31
2023-03-16T17:09:27.874Z,13.04
2023-03-16T17:11:57.011Z,13.13
2023-03-16T17:14:27.444Z,12.89
2023-03-16T17:16:54.526Z,12.92
2023-03-16T17:19:25.160Z,12.84
2023-03-16T17:21:55.340Z,12.70
2023-03-16T17:24:22.891Z,12.59
2023-03-16T17:26:53.993Z,12.65
2023-03-16T17:29:34.112Z,12.62
2023-03-16T17:32:04.410Z,12.48
2023-03-16T17:34:33.754Z,12.40
2023-03-16T17:37:01.840Z,12.27
2023-03-16T17:39:32.227Z,12.27
2023-03-16T17:42:02.919Z,12.16
2023-03-16T17:44:40.168Z,11.87
2023-03-16T17:47:20.800Z,12.08
2023-03-16T17:49:48.951Z,11.79
2023-03-16T17:52:19.419Z,12.04
2023-03-16T17:54:51.113Z,11.97
2023-03-16T17:57:24.754Z,11.92
2023-03-16T17:59:52.123Z,11.90
2023-03-16T18:02:40.052Z,11.83
2023-03-16T18:05:16.555Z,11.78
2023-03-16T18:07:43.411Z,11.72
2023-03-16T18:10:19.869Z,11.62
2023-03-16T18:12:51.209Z,11.66
2023-03-16T18:15:18.999Z,11.37
2023-03-16T18:17:46.189Z,11.46
2023-03-16T18:20:33.477Z,11.46
2023-03-16T18:23:05.814Z,11.42
2023-03-16T18:25:42.130Z,11.39
2023-03-16T18:28:11.070Z,11.09
2023-03-16T18:30:40.168Z,11.21
2023-03-16T18:33:17.439Z,11.31
2023-03-16T18:35:44.856Z,11.08
2023-03-16T18:38:33.554Z,11.18
2023-03-16T18:41:03.549Z,11.20
2023-03-16T18:43:30.481Z,11.16
2023-03-16T18:45:57.352Z,11.11
2023-03-16T18:48:34.835Z,11.09
2023-03-16T18:51:02.138Z,10.91
2023-03-16T18:53:29.617Z,10.87
2023-03-16T18:55:57.689Z,10.94
2023-03-16T18:58:25.333Z,11.02
2023-03-16T19:00:58.690Z,10.89
2023-03-16T19:03:33.405Z,10.96
2023-03-16T19:06:08.054Z,10.86
2023-03-16T19:08:35.084Z,10.97
2023-03-16T19:11:03.185Z,10.62
2023-03-16T19:13:30.206Z,10.76
2023-03-16T19:15:57.881Z,10.91
2023-03-16T19:18:26.138Z,10.84
2023-03-16T19:20:54.778Z,10.83
2023-03-16T19:23:28.426Z,10.95
2023-03-16T19:25:55.982Z,10.92
2023-03-16T19:28:36.681Z,10.87
2023-03-16T19:31:20.731Z,10.73
2023-03-16T19:33:48.521Z,10.42
2023-03-16T19:36:20.027Z,10.60
2023-03-16T19:38:50.362Z,10.63
2023-03-16T19:41:29.122Z,10.70
2023-03-16T19:43:58.340Z,10.56
2023-03-16T19:46:28.208Z,10.47
2023-03-16T19:48:55.625Z,10.59
2023-03-16T19:51:25.252Z,10.61
2023-03-16T19:53:52.234Z,10.44
2023-03-16T19:56:21.525Z,10.47
2023-03-16T19:58:51.683Z,10.57
2023-03-16T20:01:32.862Z,10.62
2023-03-16T20:04:00.306Z,10.59
2023-03-16T20:06:27.407Z,10.44
2023-03-16T20:08:54.263Z,10.22
2023-03-16T20:11:31.826Z,10.50
2023-03-16T20:14:00.323Z,10.49
2023-03-16T20:16:32.911Z,10.48
2023-03-16T20:19:09.901Z,10.56
2023-03-16T20:21:37.985Z,10.62
2023-03-16T20:24:15.400Z,10.44
2023-03-16T20:26:44.348Z,10.42
2023-03-16T20:29:33.953Z,10.24
2023-03-16T20:32:03.634Z,10.21
2023-03-16T20:34:32.577Z,10.18
2023-03-16T20:37:00.510Z,10.29
2023-03-16T20:39:27.800Z,10.18
2023-03-16T20:41:54.700Z,10.24
2023-03-16T20:44:25.357Z,10.30
2023-03-16T20:46:54.637Z,10.06
2023-03-16T20:49:25.312Z,10.16
2023-03-16T20:51:53.172Z,9.93
2023-03-16T20:54:20.328Z,10.04
2023-03-16T20:56:48.196Z,9.66
2023-03-16T20:59:23.541Z,9.70
2023-03-16T21:01:51.922Z,10.00
2023-03-16T21:04:29.768Z,9.93
2023-03-16T21:06:59.679Z,9.85
2023-03-16T21:09:27.659Z,9.75
2023-03-16T21:11:54.545Z,9.86
2023-03-16T21:14:23.403Z,9.89
2023-03-16T21:16:51.445Z,9.88
2023-03-16T21:19:22.806Z,9.70
2023-03-16T21:21:50.228Z,9.83
2023-03-16T21:24:17.354Z,9.74
2023-03-16T21:26:45.053Z,9.78
2023-03-16T21:29:17.291Z,9.75
2023-03-16T21:31:44.456Z,9.58
2023-03-16T21:34:37.804Z,9.62
2023-03-16T21:37:17.103Z,9.63
2023-03-16T21:39:48.158Z,9.41
2023-03-16T21:42:17.198Z,9.53
2023-03-16T21:44:44.459Z,9.58
2023-03-16T21:47:28.006Z,9.62
2023-03-16T21:49:55.939Z,9.53
2023-03-16T21:52:28.596Z,9.48
2023-03-16T21:54:57.165Z,9.35
2023-03-16T21:57:24.242Z,9.19
2023-03-16T21:59:51.203Z,9.17
2023-03-16T22:02:21.979Z,9.07
2023-03-16T22:04:50.592Z,8.93
2023-03-16T22:07:18.081Z,8.85
2023-03-16T22:09:45.950Z,8.93
2023-03-16T22:12:14.123Z,8.81
2023-03-16T22:14:41.845Z,8.82
2023-03-16T22:17:21.517Z,8.73
2023-03-16T22:19:48.433Z,8.76
2023-03-16T22:22:17.316Z,8.79
2023-03-16T22:24:44.236Z,8.76
2023-03-16T22:27:21.426Z,8.72
2023-03-16T22:29:51.047Z,8.69
2023-03-16T22:32:21.789Z,8.65
2023-03-16T22:34:58.318Z,8.52
2023-03-16T22:37:27.856Z,8.51
2023-03-16T22:39:57.318Z,8.46
2023-03-16T22:42:32.216Z,8.51
2023-03-16T22:44:59.119Z,8.41
2023-03-16T22:47:32.436Z,8.43
2023-03-16T22:49:59.466Z,8.53
2023-03-16T22:52:31.248Z,8.47
2023-03-16T22:55:00.464Z,8.56
2023-03-16T22:57:28.538Z,8.60
2023-03-16T22:59:55.649Z,8.55
2023-03-16T23:02:26.766Z,8.48
2023-03-16T23:04:53.665Z,8.33
2023-03-16T23:07:20.532Z,8.11
2023-03-16T23:09:48.447Z,8.27
2023-03-16T23:12:20.451Z,8.24
2023-03-16T23:14:47.641Z,8.22
2023-03-16T23:17:18.791Z,8.12
2023-03-16T23:19:46.561Z,8.16
2023-03-16T23:22:13.493Z,8.08
2023-03-16T23:24:40.992Z,8.02
2023-03-16T23:27:21.380Z,8.00
2023-03-16T23:29:48.685Z,7.97
2023-03-16T23:32:19.490Z,7.98
2023-03-16T23:34:46.446Z,7.95
2023-03-16T23:37:13.265Z,7.98
2023-03-16T23:39:40.098Z,7.97
2023-03-16T23:42:07.481Z,7.95
2023-03-16T23:44:34.478Z,7.92
2023-03-16T23:47:01.445Z,7.86
2023-03-16T23:49:32.584Z,7.89
2023-03-16T23:52:01.725Z,7.94
2023-03-16T23:54:31.533Z,7.89
2023-03-16T23:56:58.898Z,7.83
2023-03-16T23:59:27.351Z,7.85
